sensor_id;sensor_type;location;lat;lon;timestamp;P1;durP1;ratioP1;P2;durP2;ratioP2
14052;SDS011;7101;51.600;7.310;2024-01-07T00:00:44;11.63;;;6.55;;
14052;SDS011;7101;51.600;7.310;2024-01-07T00:03:11;14.02;;;6.63;;
14052;SDS011;7101;51.600;7.310;2024-01-07T00:05:39;14.27;;;6.90;;
14052;SDS011;7101;51.600;7.310;2024-01-07T00:08:07;15.00;;;6.85;;
14052;SDS011;7101;51.600;7.310;2024-01-07T00:10:34;13.13;;;6.50;;
14052;SDS011;7101;51.600;7.310;2024-01-07T00:13:01;13.93;;;7.15;;
14052;SDS011;7101;51.600;7.310;2024-01-07T00:15:27;12.18;;;6.78;;
14052;SDS011;7101;51.600;7.310;2024-01-07T00:17:54;14.63;;;6.88;;
14052;SDS011;7101;51.600;7.310;2024-01-07T00:20:21;14.82;;;6.32;;
14052;SDS011;7101;51.600;7.310;2024-01-07T00:22:49;13.75;;;6.32;;
14052;SDS011;7101;51.600;7.310;2024-01-07T00:25:16;15.15;;;6.70;;
14052;SDS011;7101;51.600;7.310;2024-01-07T00:27:44;12.80;;;6.90;;
14052;SDS011;7101;51.600;7.310;2024-01-07T00:30:11;13.68;;;7.03;;
14052;SDS011;7101;51.600;7.310;2024-01-07T00:32:38;13.85;;;6.43;;
14052;SDS011;7101;51.600;7.310;2024-01-07T00:35:07;17.35;;;7.18;;
14052;SDS011;7101;51.600;7.310;2024-01-07T00:37:34;14.20;;;7.40;;
14052;SDS011;7101;51.600;7.310;2024-01-07T00:40:02;16.17;;;7.40;;
14052;SDS011;7101;51.600;7.310;2024-01-07T00:42:30;15.57;;;7.10;;
14052;SDS011;7101;51.600;7.310;2024-01-07T00:44:57;16.35;;;8.32;;
14052;SDS011;7101;51.600;7.310;2024-01-07T00:47:24;16.33;;;7.88;;
14052;SDS011;7101;51.600;7.310;2024-01-07T00:49:51;19.38;;;7.70;;
14052;SDS011;7101;51.600;7.310;2024-01-07T00:52:18;15.45;;;6.65;;
14052;SDS011;7101;51.600;7.310;2024-01-07T00:54:46;14.68;;;7.18;;
14052;SDS011;7101;51.600;7.310;2024-01-07T00:57:14;13.05;;;7.18;;
14052;SDS011;7101;51.600;7.310;2024-01-07T00:59:41;17.30;;;7.53;;
14052;SDS011;7101;51.600;7.310;2024-01-07T01:02:07;14.63;;;7.68;;
14052;SDS011;7101;51.600;7.310;2024-01-07T01:04:34;19.27;;;7.88;;
14052;SDS011;7101;51.600;7.310;2024-01-07T01:07:04;18.20;;;7.65;;
14052;SDS011;7101;51.600;7.310;2024-01-07T01:09:33;16.55;;;7.40;;
14052;SDS011;7101;51.600;7.310;2024-01-07T01:12:00;19.67;;;8.25;;
14052;SDS011;7101;51.600;7.310;2024-01-07T01:14:28;15.93;;;8.05;;
14052;SDS011;7101;51.600;7.310;2024-01-07T01:16:55;18.30;;;8.35;;
14052;SDS011;7101;51.600;7.310;2024-01-07T01:19:22;17.63;;;7.72;;
14052;SDS011;7101;51.600;7.310;2024-01-07T01:21:49;18.95;;;8.60;;
14052;SDS011;7101;51.600;7.310;2024-01-07T01:24:16;19.92;;;8.30;;
14052;SDS011;7101;51.600;7.310;2024-01-07T01:26:43;16.80;;;7.82;;
14052;SDS011;7101;51.600;7.310;2024-01-07T01:29:09;19.15;;;8.45;;
14052;SDS011;7101;51.600;7.310;2024-01-07T01:31:38;14.70;;;8.05;;
14052;SDS011;7101;51.600;7.310;2024-01-07T01:34:04;15.73;;;7.53;;
14052;SDS011;7101;51.600;7.310;2024-01-07T01:36:31;13.52;;;6.88;;
14052;SDS011;7101;51.600;7.310;2024-01-07T01:38:58;14.35;;;7.20;;
14052;SDS011;7101;51.600;7.310;2024-01-07T01:41:25;15.90;;;7.43;;
14052;SDS011;7101;51.600;7.310;2024-01-07T01:43:55;11.60;;;6.57;;
14052;SDS011;7101;51.600;7.310;2024-01-07T01:46:24;16.15;;;7.30;;
14052;SDS011;7101;51.600;7.310;2024-01-07T01:48:52;14.75;;;8.27;;
14052;SDS011;7101;51.600;7.310;2024-01-07T01:51:19;17.92;;;7.93;;
14052;SDS011;7101;51.600;7.310;2024-01-07T01:53:47;18.48;;;8.55;;
14052;SDS011;7101;51.600;7.310;2024-01-07T01:56:15;15.85;;;8.07;;
14052;SDS011;7101;51.600;7.310;2024-01-07T01:58:45;16.67;;;7.75;;
14052;SDS011;7101;51.600;7.310;2024-01-07T02:01:12;18.17;;;8.40;;
14052;SDS011;7101;51.600;7.310;2024-01-07T02:03:39;15.15;;;7.35;;
14052;SDS011;7101;51.600;7.310;2024-01-07T02:06:08;16.83;;;8.02;;
14052;SDS011;7101;51.600;7.310;2024-01-07T02:08:35;19.30;;;8.02;;
14052;SDS011;7101;51.600;7.310;2024-01-07T02:11:13;17.70;;;8.30;;
14052;SDS011;7101;51.600;7.310;2024-01-07T02:13:43;15.13;;;8.18;;
14052;SDS011;7101;51.600;7.310;2024-01-07T02:16:10;14.90;;;7.63;;
14052;SDS011;7101;51.600;7.310;2024-01-07T02:18:37;13.13;;;7.10;;
14052;SDS011;7101;51.600;7.310;2024-01-07T02:21:08;13.02;;;7.35;;
14052;SDS011;7101;51.600;7.310;2024-01-07T02:23:36;15.07;;;7.93;;
14052;SDS011;7101;51.600;7.310;2024-01-07T02:26:04;14.63;;;7.38;;
14052;SDS011;7101;51.600;7.310;2024-01-07T02:28:31;16.77;;;7.65;;
14052;SDS011;7101;51.600;7.310;2024-01-07T02:30:58;14.10;;;7.78;;
14052;SDS011;7101;51.600;7.310;2024-01-07T02:33:25;15.98;;;7.80;;
14052;SDS011;7101;51.600;7.310;2024-01-07T02:35:53;14.32;;;7.50;;
14052;SDS011;7101;51.600;7.310;2024-01-07T02:38:19;15.18;;;7.97;;
14052;SDS011;7101;51.600;7.310;2024-01-07T02:40:46;14.18;;;7.15;;
14052;SDS011;7101;51.600;7.310;2024-01-07T02:43:14;14.63;;;7.72;;
14052;SDS011;7101;51.600;7.310;2024-01-07T02:45:41;12.02;;;7.18;;
14052;SDS011;7101;51.600;7.310;2024-01-07T02:48:08;14.38;;;7.68;;
14052;SDS011;7101;51.600;7.310;2024-01-07T02:50:34;14.13;;;7.35;;
14052;SDS011;7101;51.600;7.310;2024-01-07T02:53:01;12.45;;;7.15;;
14052;SDS011;7101;51.600;7.310;2024-01-07T02:55:28;14.05;;;7.57;;
14052;SDS011;7101;51.600;7.310;2024-01-07T02:57:55;12.63;;;7.20;;
14052;SDS011;7101;51.600;7.310;2024-01-07T03:00:23;11.95;;;6.97;;
14052;SDS011;7101;51.600;7.310;2024-01-07T03:02:49;13.07;;;7.18;;
14052;SDS011;7101;51.600;7.310;2024-01-07T03:05:16;12.07;;;6.55;;
14052;SDS011;7101;51.600;7.310;2024-01-07T03:07:43;13.90;;;7.45;;
14052;SDS011;7101;51.600;7.310;2024-01-07T03:10:10;11.85;;;6.68;;
14052;SDS011;7101;51.600;7.310;2024-01-07T03:12:37;13.57;;;7.22;;
14052;SDS011;7101;51.600;7.310;2024-01-07T03:15:04;12.10;;;7.10;;
14052;SDS011;7101;51.600;7.310;2024-01-07T03:17:35;11.75;;;6.57;;
14052;SDS011;7101;51.600;7.310;2024-01-07T03:20:03;10.88;;;6.05;;
14052;SDS011;7101;51.600;7.310;2024-01-07T03:22:30;11.23;;;6.47;;
14052;SDS011;7101;51.600;7.310;2024-01-07T03:24:57;14.68;;;7.28;;
14052;SDS011;7101;51.600;7.310;2024-01-07T03:27:23;12.65;;;6.78;;
14052;SDS011;7101;51.600;7.310;2024-01-07T03:29:50;13.00;;;6.30;;
14052;SDS011;7101;51.600;7.310;2024-01-07T03:32:17;11.90;;;6.53;;
14052;SDS011;7101;51.600;7.310;2024-01-07T03:34:45;12.18;;;6.38;;
14052;SDS011;7101;51.600;7.310;2024-01-07T03:37:12;12.00;;;6.43;;
14052;SDS011;7101;51.600;7.310;2024-01-07T03:39:39;16.13;;;7.60;;
14052;SDS011;7101;51.600;7.310;2024-01-07T03:42:06;11.48;;;6.30;;
14052;SDS011;7101;51.600;7.310;2024-01-07T03:44:36;14.02;;;6.82;;
14052;SDS011;7101;51.600;7.310;2024-01-07T03:47:03;12.05;;;6.45;;
14052;SDS011;7101;51.600;7.310;2024-01-07T03:49:31;16.38;;;7.18;;
14052;SDS011;7101;51.600;7.310;2024-01-07T03:51:59;14.35;;;7.47;;
14052;SDS011;7101;51.600;7.310;2024-01-07T03:54:27;13.57;;;7.28;;
14052;SDS011;7101;51.600;7.310;2024-01-07T03:56:53;12.65;;;7.22;;
14052;SDS011;7101;51.600;7.310;2024-01-07T03:59:20;11.70;;;6.82;;
14052;SDS011;7101;51.600;7.310;2024-01-07T04:01:48;12.90;;;7.18;;
14052;SDS011;7101;51.600;7.310;2024-01-07T04:04:15;11.85;;;6.40;;
14052;SDS011;7101;51.600;7.310;2024-01-07T04:06:41;18.70;;;6.75;;
14052;SDS011;7101;51.600;7.310;2024-01-07T04:09:09;15.68;;;7.85;;
14052;SDS011;7101;51.600;7.310;2024-01-07T04:11:38;14.63;;;7.78;;
14052;SDS011;7101;51.600;7.310;2024-01-07T04:14:06;13.02;;;6.65;;
14052;SDS011;7101;51.600;7.310;2024-01-07T04:16:33;13.80;;;7.72;;
14052;SDS011;7101;51.600;7.310;2024-01-07T04:19:00;14.32;;;7.63;;
14052;SDS011;7101;51.600;7.310;2024-01-07T04:21:27;16.13;;;7.03;;
14052;SDS011;7101;51.600;7.310;2024-01-07T04:23:54;13.82;;;7.03;;
14052;SDS011;7101;51.600;7.310;2024-01-07T04:26:23;16.55;;;7.28;;
14052;SDS011;7101;51.600;7.310;2024-01-07T04:28:51;14.30;;;7.40;;
14052;SDS011;7101;51.600;7.310;2024-01-07T04:31:17;14.23;;;7.38;;
14052;SDS011;7101;51.600;7.310;2024-01-07T04:33:44;13.90;;;7.70;;
14052;SDS011;7101;51.600;7.310;2024-01-07T04:36:11;13.77;;;7.50;;
14052;SDS011;7101;51.600;7.310;2024-01-07T04:38:38;14.30;;;7.65;;
14052;SDS011;7101;51.600;7.310;2024-01-07T04:41:04;12.18;;;6.85;;
14052;SDS011;7101;51.600;7.310;2024-01-07T04:43:34;15.10;;;7.43;;
14052;SDS011;7101;51.600;7.310;2024-01-07T04:46:02;15.60;;;7.47;;
14052;SDS011;7101;51.600;7.310;2024-01-07T04:48:28;14.93;;;7.45;;
14052;SDS011;7101;51.600;7.310;2024-01-07T04:50:55;15.65;;;7.85;;
14052;SDS011;7101;51.600;7.310;2024-01-07T04:53:22;14.75;;;7.05;;
14052;SDS011;7101;51.600;7.310;2024-01-07T04:55:49;13.93;;;7.10;;
14052;SDS011;7101;51.600;7.310;2024-01-07T04:58:15;12.18;;;7.47;;
14052;SDS011;7101;51.600;7.310;2024-01-07T05:00:43;16.27;;;7.68;;
14052;SDS011;7101;51.600;7.310;2024-01-07T05:03:10;17.73;;;7.90;;
14052;SDS011;7101;51.600;7.310;2024-01-07T05:05:37;13.63;;;7.40;;
14052;SDS011;7101;51.600;7.310;2024-01-07T05:08:04;15.32;;;7.78;;
14052;SDS011;7101;51.600;7.310;2024-01-07T05:10:31;14.45;;;7.45;;
14052;SDS011;7101;51.600;7.310;2024-01-07T05:12:58;13.50;;;7.30;;
14052;SDS011;7101;51.600;7.310;2024-01-07T05:15:30;14.55;;;7.43;;
14052;SDS011;7101;51.600;7.310;2024-01-07T05:17:58;15.57;;;7.93;;
14052;SDS011;7101;51.600;7.310;2024-01-07T05:20:25;14.60;;;7.68;;
14052;SDS011;7101;51.600;7.310;2024-01-07T05:22:51;13.80;;;7.03;;
14052;SDS011;7101;51.600;7.310;2024-01-07T05:25:18;16.05;;;8.07;;
14052;SDS011;7101;51.600;7.310;2024-01-07T05:27:45;17.52;;;7.55;;
14052;SDS011;7101;51.600;7.310;2024-01-07T05:30:12;12.90;;;7.45;;
14052;SDS011;7101;51.600;7.310;2024-01-07T05:32:38;15.77;;;7.72;;
14052;SDS011;7101;51.600;7.310;2024-01-07T05:35:07;14.10;;;7.57;;
14052;SDS011;7101;51.600;7.310;2024-01-07T05:37:34;15.73;;;8.07;;
14052;SDS011;7101;51.600;7.310;2024-01-07T05:40:01;16.88;;;7.80;;
14052;SDS011;7101;51.600;7.310;2024-01-07T05:42:27;15.18;;;7.10;;
14052;SDS011;7101;51.600;7.310;2024-01-07T05:44:54;16.55;;;8.18;;
14052;SDS011;7101;51.600;7.310;2024-01-07T05:47:21;16.27;;;7.55;;
14052;SDS011;7101;51.600;7.310;2024-01-07T05:49:48;13.10;;;7.43;;
14052;SDS011;7101;51.600;7.310;2024-01-07T05:52:18;16.73;;;7.75;;
14052;SDS011;7101;51.600;7.310;2024-01-07T05:54:45;16.77;;;7.57;;
14052;SDS011;7101;51.600;7.310;2024-01-07T05:57:12;17.40;;;7.80;;
14052;SDS011;7101;51.600;7.310;2024-01-07T05:59:39;16.05;;;7.82;;
14052;SDS011;7101;51.600;7.310;2024-01-07T06:02:05;16.83;;;8.48;;
14052;SDS011;7101;51.600;7.310;2024-01-07T06:04:32;16.73;;;7.82;;
14052;SDS011;7101;51.600;7.310;2024-01-07T06:06:59;18.00;;;8.15;;
14052;SDS011;7101;51.600;7.310;2024-01-07T06:09:27;15.57;;;8.40;;
14052;SDS011;7101;51.600;7.310;2024-01-07T06:11:53;14.65;;;7.28;;
14052;SDS011;7101;51.600;7.310;2024-01-07T06:14:20;15.30;;;8.55;;
14052;SDS011;7101;51.600;7.310;2024-01-07T06:16:47;14.75;;;7.30;;
14052;SDS011;7101;51.600;7.310;2024-01-07T06:19:15;12.93;;;7.40;;
14052;SDS011;7101;51.600;7.310;2024-01-07T06:21:42;13.65;;;7.32;;
14052;SDS011;7101;51.600;7.310;2024-01-07T06:24:09;12.25;;;7.07;;
14052;SDS011;7101;51.600;7.310;2024-01-07T06:26:37;14.55;;;7.10;;
14052;SDS011;7101;51.600;7.310;2024-01-07T06:29:05;11.80;;;6.72;;
14052;SDS011;7101;51.600;7.310;2024-01-07T06:31:32;14.73;;;7.32;;
14052;SDS011;7101;51.600;7.310;2024-01-07T06:33:59;16.30;;;7.28;;
14052;SDS011;7101;51.600;7.310;2024-01-07T06:36:26;17.23;;;8.07;;
14052;SDS011;7101;51.600;7.310;2024-01-07T06:38:52;13.98;;;7.13;;
14052;SDS011;7101;51.600;7.310;2024-01-07T06:41:19;12.32;;;7.00;;
14052;SDS011;7101;51.600;7.310;2024-01-07T06:43:47;14.63;;;7.47;;
14052;SDS011;7101;51.600;7.310;2024-01-07T06:46:15;14.77;;;8.00;;
14052;SDS011;7101;51.600;7.310;2024-01-07T06:48:41;14.15;;;7.20;;
14052;SDS011;7101;51.600;7.310;2024-01-07T06:51:08;12.35;;;6.28;;
14052;SDS011;7101;51.600;7.310;2024-01-07T06:53:35;13.52;;;6.68;;
14052;SDS011;7101;51.600;7.310;2024-01-07T06:56:00;12.07;;;6.97;;
14052;SDS011;7101;51.600;7.310;2024-01-07T06:58:28;11.95;;;6.28;;
14052;SDS011;7101;51.600;7.310;2024-01-07T07:00:56;11.50;;;6.82;;
14052;SDS011;7101;51.600;7.310;2024-01-07T07:03:22;13.85;;;7.07;;
14052;SDS011;7101;51.600;7.310;2024-01-07T07:05:49;11.10;;;6.03;;
14052;SDS011;7101;51.600;7.310;2024-01-07T07:08:16;14.18;;;6.47;;
14052;SDS011;7101;51.600;7.310;2024-01-07T07:10:43;14.38;;;6.20;;
14052;SDS011;7101;51.600;7.310;2024-01-07T07:13:10;14.57;;;6.63;;
14052;SDS011;7101;51.600;7.310;2024-01-07T07:15:37;11.38;;;6.15;;
14052;SDS011;7101;51.600;7.310;2024-01-07T07:18:06;13.98;;;6.25;;
14052;SDS011;7101;51.600;7.310;2024-01-07T07:20:32;12.07;;;6.80;;
14052;SDS011;7101;51.600;7.310;2024-01-07T07:22:59;10.73;;;6.30;;
14052;SDS011;7101;51.600;7.310;2024-01-07T07:25:27;15.50;;;6.28;;
14052;SDS011;7101;51.600;7.310;2024-01-07T07:27:53;13.15;;;7.07;;
14052;SDS011;7101;51.600;7.310;2024-01-07T07:30:21;13.88;;;6.82;;
14052;SDS011;7101;51.600;7.310;2024-01-07T07:32:47;11.25;;;5.90;;
14052;SDS011;7101;51.600;7.310;2024-01-07T07:35:15;13.40;;;6.60;;
14052;SDS011;7101;51.600;7.310;2024-01-07T07:37:42;15.18;;;6.90;;
14052;SDS011;7101;51.600;7.310;2024-01-07T07:40:09;13.90;;;7.03;;
14052;SDS011;7101;51.600;7.310;2024-01-07T07:42:38;12.77;;;6.22;;
14052;SDS011;7101;51.600;7.310;2024-01-07T07:45:05;15.25;;;7.28;;
14052;SDS011;7101;51.600;7.310;2024-01-07T07:47:32;12.98;;;6.50;;
14052;SDS011;7101;51.600;7.310;2024-01-07T07:49:59;14.07;;;6.93;;
14052;SDS011;7101;51.600;7.310;2024-01-07T07:52:28;13.68;;;7.07;;
14052;SDS011;7101;51.600;7.310;2024-01-07T07:54:55;14.43;;;7.20;;
14052;SDS011;7101;51.600;7.310;2024-01-07T07:57:22;16.17;;;6.35;;
14052;SDS011;7101;51.600;7.310;2024-01-07T07:59:50;14.10;;;6.90;;
14052;SDS011;7101;51.600;7.310;2024-01-07T08:02:18;12.60;;;6.57;;
14052;SDS011;7101;51.600;7.310;2024-01-07T08:04:44;10.25;;;5.93;;
14052;SDS011;7101;51.600;7.310;2024-01-07T08:07:11;13.48;;;6.18;;
14052;SDS011;7101;51.600;7.310;2024-01-07T08:09:39;11.88;;;6.00;;
14052;SDS011;7101;51.600;7.310;2024-01-07T08:12:06;14.68;;;5.88;;
14052;SDS011;7101;51.600;7.310;2024-01-07T08:14:33;9.52;;;5.57;;
14052;SDS011;7101;51.600;7.310;2024-01-07T08:17:00;12.15;;;5.40;;
14052;SDS011;7101;51.600;7.310;2024-01-07T08:19:29;11.80;;;5.88;;
14052;SDS011;7101;51.600;7.310;2024-01-07T08:21:55;10.93;;;5.63;;
14052;SDS011;7101;51.600;7.310;2024-01-07T08:24:22;11.07;;;5.53;;
14052;SDS011;7101;51.600;7.310;2024-01-07T08:26:50;10.43;;;5.53;;
14052;SDS011;7101;51.600;7.310;2024-01-07T08:29:17;11.07;;;5.70;;
14052;SDS011;7101;51.600;7.310;2024-01-07T08:31:44;10.98;;;6.03;;
14052;SDS011;7101;51.600;7.310;2024-01-07T08:34:11;9.27;;;5.80;;
14052;SDS011;7101;51.600;7.310;2024-01-07T08:36:38;11.85;;;5.93;;
14052;SDS011;7101;51.600;7.310;2024-01-07T08:39:05;12.13;;;5.13;;
14052;SDS011;7101;51.600;7.310;2024-01-07T08:41:31;9.80;;;5.03;;
14052;SDS011;7101;51.600;7.310;2024-01-07T08:43:59;9.05;;;5.25;;
14052;SDS011;7101;51.600;7.310;2024-01-07T08:46:26;10.63;;;6.13;;
14052;SDS011;7101;51.600;7.310;2024-01-07T08:48:53;8.40;;;4.90;;
14052;SDS011;7101;51.600;7.310;2024-01-07T08:51:19;8.93;;;5.00;;
14052;SDS011;7101;51.600;7.310;2024-01-07T08:53:46;9.63;;;6.03;;
14052;SDS011;7101;51.600;7.310;2024-01-07T08:56:12;10.48;;;6.32;;
14052;SDS011;7101;51.600;7.310;2024-01-07T08:58:40;8.82;;;5.47;;
14052;SDS011;7101;51.600;7.310;2024-01-07T09:01:08;9.65;;;5.10;;
14052;SDS011;7101;51.600;7.310;2024-01-07T09:03:35;9.88;;;5.40;;
14052;SDS011;7101;51.600;7.310;2024-01-07T09:06:02;9.82;;;5.10;;
14052;SDS011;7101;51.600;7.310;2024-01-07T09:08:29;11.05;;;5.32;;
14052;SDS011;7101;51.600;7.310;2024-01-07T09:10:56;10.50;;;5.68;;
14052;SDS011;7101;51.600;7.310;2024-01-07T09:13:25;9.70;;;5.18;;
14052;SDS011;7101;51.600;7.310;2024-01-07T09:15:52;8.95;;;4.97;;
14052;SDS011;7101;51.600;7.310;2024-01-07T09:18:20;11.07;;;5.15;;
14052;SDS011;7101;51.600;7.310;2024-01-07T09:20:46;7.57;;;4.53;;
14052;SDS011;7101;51.600;7.310;2024-01-07T09:23:13;9.68;;;4.72;;
14052;SDS011;7101;51.600;7.310;2024-01-07T09:25:41;10.77;;;5.57;;
14052;SDS011;7101;51.600;7.310;2024-01-07T09:28:08;7.93;;;4.47;;
14052;SDS011;7101;51.600;7.310;2024-01-07T09:30:35;7.07;;;4.35;;
14052;SDS011;7101;51.600;7.310;2024-01-07T09:33:01;10.18;;;5.32;;
14052;SDS011;7101;51.600;7.310;2024-01-07T09:35:29;8.98;;;4.63;;
14052;SDS011;7101;51.600;7.310;2024-01-07T09:37:57;10.18;;;5.03;;
14052;SDS011;7101;51.600;7.310;2024-01-07T09:40:24;9.10;;;4.57;;
14052;SDS011;7101;51.600;7.310;2024-01-07T09:42:51;8.93;;;4.55;;
14052;SDS011;7101;51.600;7.310;2024-01-07T09:45:18;6.45;;;3.95;;
14052;SDS011;7101;51.600;7.310;2024-01-07T09:47:47;7.05;;;3.60;;
14052;SDS011;7101;51.600;7.310;2024-01-07T09:50:14;6.53;;;3.92;;
14052;SDS011;7101;51.600;7.310;2024-01-07T09:52:43;8.90;;;3.42;;
14052;SDS011;7101;51.600;7.310;2024-01-07T09:55:11;9.95;;;4.22;;
14052;SDS011;7101;51.600;7.310;2024-01-07T09:57:45;7.05;;;3.70;;
14052;SDS011;7101;51.600;7.310;2024-01-07T10:00:13;10.18;;;4.07;;
14052;SDS011;7101;51.600;7.310;2024-01-07T10:02:40;9.82;;;4.40;;
14052;SDS011;7101;51.600;7.310;2024-01-07T10:05:07;7.45;;;3.40;;
14052;SDS011;7101;51.600;7.310;2024-01-07T10:07:34;6.00;;;3.70;;
14052;SDS011;7101;51.600;7.310;2024-01-07T10:10:11;5.22;;;3.65;;
14052;SDS011;7101;51.600;7.310;2024-01-07T10:12:39;3.78;;;2.92;;
14052;SDS011;7101;51.600;7.310;2024-01-07T10:15:07;5.72;;;3.47;;
14052;SDS011;7101;51.600;7.310;2024-01-07T10:17:36;7.32;;;3.00;;
14052;SDS011;7101;51.600;7.310;2024-01-07T10:20:04;6.55;;;3.30;;
14052;SDS011;7101;51.600;7.310;2024-01-07T10:22:34;7.80;;;3.17;;
14052;SDS011;7101;51.600;7.310;2024-01-07T10:25:02;6.18;;;3.00;;
14052;SDS011;7101;51.600;7.310;2024-01-07T10:27:33;5.38;;;2.80;;
14052;SDS011;7101;51.600;7.310;2024-01-07T10:30:00;5.93;;;2.92;;
14052;SDS011;7101;51.600;7.310;2024-01-07T10:32:28;6.05;;;3.17;;
14052;SDS011;7101;51.600;7.310;2024-01-07T10:34:56;7.50;;;3.72;;
14052;SDS011;7101;51.600;7.310;2024-01-07T10:37:28;5.95;;;3.20;;
14052;SDS011;7101;51.600;7.310;2024-01-07T10:39:55;5.13;;;2.80;;
14052;SDS011;7101;51.600;7.310;2024-01-07T10:42:26;7.70;;;3.35;;
14052;SDS011;7101;51.600;7.310;2024-01-07T10:44:55;5.78;;;3.30;;
14052;SDS011;7101;51.600;7.310;2024-01-07T10:47:21;5.68;;;2.45;;
14052;SDS011;7101;51.600;7.310;2024-01-07T10:49:49;4.75;;;3.03;;
14052;SDS011;7101;51.600;7.310;2024-01-07T10:52:16;3.58;;;2.60;;
14052;SDS011;7101;51.600;7.310;2024-01-07T10:54:45;3.80;;;2.50;;
14052;SDS011;7101;51.600;7.310;2024-01-07T10:57:15;4.68;;;2.40;;
14052;SDS011;7101;51.600;7.310;2024-01-07T10:59:48;4.53;;;2.53;;
14052;SDS011;7101;51.600;7.310;2024-01-07T11:02:19;4.28;;;2.60;;
14052;SDS011;7101;51.600;7.310;2024-01-07T11:04:49;8.88;;;2.70;;
14052;SDS011;7101;51.600;7.310;2024-01-07T11:07:23;3.85;;;2.72;;
14052;SDS011;7101;51.600;7.310;2024-01-07T11:10:01;4.40;;;2.60;;
14052;SDS011;7101;51.600;7.310;2024-01-07T11:12:32;4.20;;;2.50;;
14052;SDS011;7101;51.600;7.310;2024-01-07T11:14:59;5.28;;;2.58;;
14052;SDS011;7101;51.600;7.310;2024-01-07T11:17:42;3.92;;;2.10;;
14052;SDS011;7101;51.600;7.310;2024-01-07T11:20:12;4.03;;;2.35;;
14052;SDS011;7101;51.600;7.310;2024-01-07T11:22:45;4.57;;;2.28;;
14052;SDS011;7101;51.600;7.310;2024-01-07T11:25:27;3.20;;;1.92;;
14052;SDS011;7101;51.600;7.310;2024-01-07T11:27:55;4.15;;;2.47;;
14052;SDS011;7101;51.600;7.310;2024-01-07T11:30:22;5.43;;;2.45;;
14052;SDS011;7101;51.600;7.310;2024-01-07T11:32:53;4.50;;;2.70;;
14052;SDS011;7101;51.600;7.310;2024-01-07T11:35:38;3.53;;;2.08;;
14052;SDS011;7101;51.600;7.310;2024-01-07T11:38:22;6.53;;;2.28;;
14052;SDS011;7101;51.600;7.310;2024-01-07T11:40:49;5.75;;;2.47;;
14052;SDS011;7101;51.600;7.310;2024-01-07T11:43:17;3.80;;;2.42;;
14052;SDS011;7101;51.600;7.310;2024-01-07T11:45:44;3.65;;;2.50;;
14052;SDS011;7101;51.600;7.310;2024-01-07T11:48:12;4.30;;;2.58;;
14052;SDS011;7101;51.600;7.310;2024-01-07T11:50:39;3.25;;;2.15;;
14052;SDS011;7101;51.600;7.310;2024-01-07T11:53:06;2.75;;;2.00;;
14052;SDS011;7101;51.600;7.310;2024-01-07T11:55:33;4.07;;;2.08;;
14052;SDS011;7101;51.600;7.310;2024-01-07T11:58:01;5.82;;;2.25;;
14052;SDS011;7101;51.600;7.310;2024-01-07T12:00:30;3.83;;;2.33;;
14052;SDS011;7101;51.600;7.310;2024-01-07T12:02:58;3.30;;;2.50;;
14052;SDS011;7101;51.600;7.310;2024-01-07T12:05:27;5.00;;;2.33;;
14052;SDS011;7101;51.600;7.310;2024-01-07T12:07:53;3.78;;;1.90;;
14052;SDS011;7101;51.600;7.310;2024-01-07T12:10:22;3.85;;;2.10;;
14052;SDS011;7101;51.600;7.310;2024-01-07T12:12:49;3.03;;;2.00;;
14052;SDS011;7101;51.600;7.310;2024-01-07T12:15:17;3.00;;;2.10;;
14052;SDS011;7101;51.600;7.310;2024-01-07T12:17:48;5.07;;;2.60;;
14052;SDS011;7101;51.600;7.310;2024-01-07T12:20:22;4.30;;;1.80;;
14052;SDS011;7101;51.600;7.310;2024-01-07T12:22:49;5.28;;;2.38;;
14052;SDS011;7101;51.600;7.310;2024-01-07T12:25:20;4.70;;;2.35;;
14052;SDS011;7101;51.600;7.310;2024-01-07T12:27:48;5.05;;;3.03;;
14052;SDS011;7101;51.600;7.310;2024-01-07T12:30:17;3.95;;;2.42;;
14052;SDS011;7101;51.600;7.310;2024-01-07T12:32:45;6.57;;;2.88;;
14052;SDS011;7101;51.600;7.310;2024-01-07T12:35:12;4.75;;;3.00;;
14052;SDS011;7101;51.600;7.310;2024-01-07T12:37:38;5.40;;;2.40;;
14052;SDS011;7101;51.600;7.310;2024-01-07T12:40:07;2.92;;;1.83;;
14052;SDS011;7101;51.600;7.310;2024-01-07T12:42:36;2.70;;;1.92;;
14052;SDS011;7101;51.600;7.310;2024-01-07T12:45:05;3.03;;;2.22;;
14052;SDS011;7101;51.600;7.310;2024-01-07T12:47:34;2.63;;;2.10;;
14052;SDS011;7101;51.600;7.310;2024-01-07T12:50:01;4.28;;;2.25;;
14052;SDS011;7101;51.600;7.310;2024-01-07T12:52:27;5.38;;;2.03;;
14052;SDS011;7101;51.600;7.310;2024-01-07T12:54:54;4.78;;;2.20;;
14052;SDS011;7101;51.600;7.310;2024-01-07T12:57:23;3.58;;;1.90;;
14052;SDS011;7101;51.600;7.310;2024-01-07T12:59:50;3.42;;;2.40;;
14052;SDS011;7101;51.600;7.310;2024-01-07T13:02:16;3.95;;;2.22;;
14052;SDS011;7101;51.600;7.310;2024-01-07T13:04:43;3.03;;;2.10;;
14052;SDS011;7101;51.600;7.310;2024-01-07T13:07:10;4.20;;;2.17;;
14052;SDS011;7101;51.600;7.310;2024-01-07T13:09:37;3.42;;;2.05;;
14052;SDS011;7101;51.600;7.310;2024-01-07T13:12:04;3.97;;;2.13;;
14052;SDS011;7101;51.600;7.310;2024-01-07T13:14:32;3.67;;;2.40;;
14052;SDS011;7101;51.600;7.310;2024-01-07T13:16:59;3.30;;;2.20;;
14052;SDS011;7101;51.600;7.310;2024-01-07T13:19:25;3.70;;;2.25;;
14052;SDS011;7101;51.600;7.310;2024-01-07T13:21:52;3.90;;;2.30;;
14052;SDS011;7101;51.600;7.310;2024-01-07T13:24:23;4.25;;;2.25;;
14052;SDS011;7101;51.600;7.310;2024-01-07T13:26:49;4.97;;;2.30;;
14052;SDS011;7101;51.600;7.310;2024-01-07T13:29:16;2.90;;;2.00;;
14052;SDS011;7101;51.600;7.310;2024-01-07T13:31:44;2.55;;;1.70;;
14052;SDS011;7101;51.600;7.310;2024-01-07T13:34:11;3.85;;;2.30;;
14052;SDS011;7101;51.600;7.310;2024-01-07T13:36:39;3.92;;;2.10;;
14052;SDS011;7101;51.600;7.310;2024-01-07T13:39:07;5.25;;;1.98;;
14052;SDS011;7101;51.600;7.310;2024-01-07T13:41:33;5.97;;;1.55;;
14052;SDS011;7101;51.600;7.310;2024-01-07T13:44:00;3.65;;;2.25;;
14052;SDS011;7101;51.600;7.310;2024-01-07T13:46:28;3.40;;;1.63;;
14052;SDS011;7101;51.600;7.310;2024-01-07T13:48:56;3.63;;;2.08;;
14052;SDS011;7101;51.600;7.310;2024-01-07T13:51:23;4.82;;;1.65;;
14052;SDS011;7101;51.600;7.310;2024-01-07T13:53:51;3.60;;;2.30;;
14052;SDS011;7101;51.600;7.310;2024-01-07T13:56:17;3.30;;;1.73;;
14052;SDS011;7101;51.600;7.310;2024-01-07T13:58:44;3.17;;;1.50;;
14052;SDS011;7101;51.600;7.310;2024-01-07T14:01:12;4.57;;;1.88;;
14052;SDS011;7101;51.600;7.310;2024-01-07T14:03:39;2.33;;;1.40;;
14052;SDS011;7101;51.600;7.310;2024-01-07T14:06:08;3.87;;;1.80;;
14052;SDS011;7101;51.600;7.310;2024-01-07T14:08:36;2.33;;;1.40;;
14052;SDS011;7101;51.600;7.310;2024-01-07T14:11:03;1.88;;;1.40;;
14052;SDS011;7101;51.600;7.310;2024-01-07T14:13:32;2.67;;;1.60;;
14052;SDS011;7101;51.600;7.310;2024-01-07T14:15:59;3.38;;;1.70;;
14052;SDS011;7101;51.600;7.310;2024-01-07T14:18:25;5.18;;;1.48;;
14052;SDS011;7101;51.600;7.310;2024-01-07T14:20:53;2.30;;;1.55;;
14052;SDS011;7101;51.600;7.310;2024-01-07T14:23:21;2.67;;;1.65;;
14052;SDS011;7101;51.600;7.310;2024-01-07T14:25:48;3.35;;;1.83;;
14052;SDS011;7101;51.600;7.310;2024-01-07T14:28:14;2.50;;;1.50;;
14052;SDS011;7101;51.600;7.310;2024-01-07T14:30:41;2.88;;;1.67;;
14052;SDS011;7101;51.600;7.310;2024-01-07T14:33:09;2.03;;;1.65;;
14052;SDS011;7101;51.600;7.310;2024-01-07T14:35:36;1.92;;;1.33;;
14052;SDS011;7101;51.600;7.310;2024-01-07T14:38:02;3.38;;;1.55;;
14052;SDS011;7101;51.600;7.310;2024-01-07T14:40:31;2.72;;;1.50;;
14052;SDS011;7101;51.600;7.310;2024-01-07T14:42:57;2.58;;;1.65;;
14052;SDS011;7101;51.600;7.310;2024-01-07T14:45:24;2.10;;;1.40;;
14052;SDS011;7101;51.600;7.310;2024-01-07T14:47:51;2.35;;;1.38;;
14052;SDS011;7101;51.600;7.310;2024-01-07T14:50:18;5.07;;;1.20;;
14052;SDS011;7101;51.600;7.310;2024-01-07T14:52:44;2.38;;;1.40;;
14052;SDS011;7101;51.600;7.310;2024-01-07T14:55:11;2.92;;;1.45;;